Time;durP1;ratioP1;P1;durP2;ratioP2;P2;SDS_P1;SDS_P2;PMS_P1;PMS_P2;Temp;Humidity;BMP_temperature;BMP_pressure;BME280_temperature;BME280_humidity;BME280_pressure;Samples;Min_cycle;Max_cycle;Signal;HPM_P1;HPM_P2
2022/12/23 00:02:53;;;;;;;;;;;;;;;12.89;57.03;99738.39;2346387;76;50758;-77
2022/12/23 00:05:55;;;;;;;;;;;;;;;12.89;56.98;99735.73;2346449;76;51479;-78
2022/12/23 00:08:59;;;;;;;;;;;;;;;12.89;56.95;99725.12;2325339;75;51723;-77
2022/12/23 00:15:20;;;;;;;;;;;;;;;12.88;57.03;99724.30;2345917;76;23213;-77
2022/12/23 00:18:22;;;;;;;;;;;;;;;12.88;57.04;99724.80;2345397;74;51504;-76
2022/12/23 00:21:24;;;;;;;;;;;;;;;12.87;57.00;99722.65;2299996;76;52379;-76
2022/12/23 00:24:25;;;;;;;;;;;;;;;12.90;56.98;99712.19;2345725;76;50252;-76
2022/12/23 00:27:27;;;;;;;;;;;;;;;12.88;56.94;99706.21;2337487;74;51438;-76
2022/12/23 00:30:28;;;;;;;;;;;;;;;12.89;57.01;99699.89;2325913;75;50676;-76
2022/12/23 00:33:32;;;;;;;;;;;;;;;12.88;57.00;99699.58;2325811;76;51711;-76
2022/12/23 00:36:33;;;;;;;;;;;;;;;12.88;56.95;99693.77;2345062;75;51592;-76
2022/12/23 00:42:54;;;;;;;;;;;;;;;12.89;57.04;99690.60;2328849;76;24486;-76
2022/12/23 00:45:56;;;;;;;;;;;;;;;12.90;57.03;99696.27;2299867;76;52420;-77
2022/12/23 00:52:17;;;;;;;;;;;;;;;12.89;57.03;99681.31;2345924;76;22329;-76
2022/12/23 00:55:19;;;;;;;;;;;;;;;12.89;57.04;99682.13;2351637;75;50631;-76
2022/12/23 00:58:20;;;;;;;;;;;;;;;12.88;57.07;99675.17;2327604;74;51708;-76
2022/12/23 01:08:01;;;;;;;;;;;;;;;12.89;56.95;99679.98;2329004;74;22350;-77
2022/12/23 01:11:03;;;;;;;;;;;;;;;12.90;57.04;99682.98;2299963;76;52382;-77
2022/12/23 01:14:04;;;;;;;;;;;;;;;12.89;57.08;99682.64;2345750;76;50762;-77
2022/12/23 01:17:06;;;;;;;;;;;;;;;12.89;57.07;99679.48;2345370;76;50279;-77
2022/12/23 01:20:08;;;;;;;;;;;;;;;12.88;57.06;99675.17;2345761;74;51543;-77
2022/12/23 01:23:10;;;;;;;;;;;;;;;12.88;57.01;99671.70;2325721;76;50831;-77
2022/12/23 01:26:11;;;;;;;;;;;;;;;12.87;57.08;99676.19;2356382;75;51441;-76
2022/12/23 01:29:13;;;;;;;;;;;;;;;12.88;57.07;99671.70;2345430;74;51494;-77
2022/12/23 01:32:14;;;;;;;;;;;;;;;12.88;57.06;99678.34;2345647;76;51442;-77
2022/12/23 01:35:16;;;;;;;;;;;;;;;12.88;57.12;99673.85;2325654;76;50945;-77
2022/12/23 01:38:18;;;;;;;;;;;;;;;12.88;57.10;99665.06;2312359;75;51501;-77
2022/12/23 01:45:00;;;;;;;;;;;;;;;12.89;57.06;99661.40;2308289;77;23520;-77
2022/12/23 01:48:08;;;;;;;;;;;;;;;12.89;57.08;99653.44;2196602;78;52498;-77
2022/12/23 01:51:13;;;;;;;;;;;;;;;12.89;57.07;99658.23;2222355;79;22323;-77
2022/12/23 01:54:15;;;;;;;;;;;;;;;12.89;57.10;99650.78;2221842;79;50319;-77
2022/12/23 01:57:17;;;;;;;;;;;;;;;12.88;57.11;99645.15;2217540;80;50343;-77
2022/12/23 02:03:43;;;;;;;;;;;;;;;12.86;57.16;99650.11;2217621;80;22352;-77
2022/12/23 02:10:06;;;;;;;;;;;;;;;12.89;57.08;99644.14;2217259;79;24550;-76
2022/12/23 02:13:09;;;;;;;;;;;;;;;12.88;57.10;99636.68;2192694;80;49351;-77
2022/12/23 02:16:16;;;;;;;;;;;;;;;12.89;57.11;99638.83;2216300;79;50539;-77
2022/12/23 02:19:18;;;;;;;;;;;;;;;12.88;57.13;99635.86;2313201;75;52223;-77
2022/12/23 02:22:38;;;;;;;;;;;;;;;12.86;57.12;99623.56;2378294;75;50776;-77
2022/12/23 02:25:41;;;;;;;;;;;;;;;12.86;57.10;99620.91;2337459;75;50143;-77
2022/12/23 02:28:44;;;;;;;;;;;;;;;12.89;57.03;99613.10;2377759;73;50342;-77
2022/12/23 02:31:57;;;;;;;;;;;;;;;12.88;57.11;99619.93;2373276;74;50737;-77
2022/12/23 02:35:06;;;;;;;;;;;;;;;12.87;57.10;99617.78;2377567;75;51455;-77
2022/12/23 02:38:21;;;;;;;;;;;;;;;12.88;57.12;99609.31;2347265;73;50646;-77
2022/12/23 02:41:24;;;;;;;;;;;;;;;12.87;57.07;99607.16;2378290;75;50307;-77
2022/12/23 02:44:28;;;;;;;;;;;;;;;12.89;57.06;99604.31;2378050;73;50145;-77
2022/12/23 02:47:33;;;;;;;;;;;;;;;12.88;57.14;99602.17;2377556;73;50563;-77
2022/12/23 02:50:35;;;;;;;;;;;;;;;12.89;57.08;99602.99;2347407;75;52656;-77
2022/12/23 02:53:37;;;;;;;;;;;;;;;12.87;57.18;99587.25;2378119;75;51600;-77
2022/12/23 02:56:39;;;;;;;;;;;;;;;12.88;57.17;99592.05;2356967;75;50377;-77
2022/12/23 02:59:42;;;;;;;;;;;;;;;12.88;57.11;99582.26;2345362;74;51486;-77
2022/12/23 03:02:44;;;;;;;;;;;;;;;12.88;57.13;99577.45;2324689;76;52573;-77
2022/12/23 03:05:46;;;;;;;;;;;;;;;12.89;57.13;99573.78;2345312;76;51516;-77
2022/12/23 03:08:48;;;;;;;;;;;;;;;12.88;57.13;99573.47;2344988;74;50528;-77
2022/12/23 03:11:51;;;;;;;;;;;;;;;12.88;57.17;99574.80;2345241;76;50526;-77
2022/12/23 03:15:11;;;;;;;;;;;;;;;12.88;57.15;99573.47;2325342;76;51345;-77
2022/12/23 03:18:17;;;;;;;;;;;;;;;12.88;57.19;99561.52;2345125;74;51485;-77
2022/12/23 03:21:20;;;;;;;;;;;;;;;12.88;57.15;99558.87;2339165;75;50303;-77
2022/12/23 03:24:23;;;;;;;;;;;;;;;12.88;57.13;99561.52;2345411;75;50273;-77
2022/12/23 03:27:30;;;;;;;;;;;;;;;12.86;57.18;99559.84;2337357;75;51649;-77
2022/12/23 03:30:31;;;;;;;;;;;;;;;12.86;57.17;99561.17;2345571;74;50388;-77
2022/12/23 03:33:37;;;;;;;;;;;;;;;12.88;57.13;99564.18;2345406;76;50289;-77
2022/12/23 03:36:40;;;;;;;;;;;;;;;12.89;57.16;99560.01;2343926;75;52241;-77
2022/12/23 03:39:44;;;;;;;;;;;;;;;12.89;57.07;99561.84;2324431;75;51833;-77
2022/12/23 03:42:45;;;;;;;;;;;;;;;12.88;57.15;99557.55;2344131;75;52642;-77
2022/12/23 03:45:48;;;;;;;;;;;;;;;12.88;57.14;99555.71;2345392;76;50306;-77
2022/12/23 03:48:54;;;;;;;;;;;;;;;12.88;57.14;99548.25;2345141;74;51680;-77
2022/12/23 03:51:57;;;;;;;;;;;;;;;12.88;57.13;99550.40;2324280;76;52477;-77
2022/12/23 03:55:00;;;;;;;;;;;;;;;12.86;57.20;99535.95;2347002;75;51555;-77
2022/12/23 03:58:03;;;;;;;;;;;;;;;12.88;57.23;99540.28;2352917;74;50331;-77
2022/12/23 04:01:15;;;;;;;;;;;;;;;12.88;57.20;99544.27;2345561;75;50398;-77
2022/12/23 04:04:35;;;;;;;;;;;;;;;12.88;57.20;99542.94;2325237;76;52632;-77
2022/12/23 04:07:38;;;;;;;;;;;;;;;12.88;57.21;99529.67;2345220;74;50744;-76
2022/12/23 04:10:40;;;;;;;;;;;;;;;12.87;57.20;99534.16;2325429;76;51541;-77
2022/12/23 04:13:41;;;;;;;;;;;;;;;12.87;57.25;99532.83;2345254;75;50663;-76
2022/12/23 04:16:43;;;;;;;;;;;;;;;12.88;57.22;99533.14;2299523;76;52562;-76
2022/12/23 04:19:44;;;;;;;;;;;;;;;12.87;57.17;99534.16;2345349;74;51510;-76
2022/12/23 04:22:46;;;;;;;;;;;;;;;12.88;57.19;99524.36;2345422;76;52302;-76
2022/12/23 04:25:48;;;;;;;;;;;;;;;12.85;57.32;99526.35;2356269;75;50779;-77
2022/12/23 04:28:49;;;;;;;;;;;;;;;12.86;57.19;99519.20;2299403;76;51697;-76
2022/12/23 04:31:51;;;;;;;;;;;;;;;12.86;57.28;99515.23;2345457;74;51634;-76
2022/12/23 04:34:52;;;;;;;;;;;;;;;12.86;57.21;99520.03;2345403;76;50646;-76
2022/12/23 04:37:54;;;;;;;;;;;;;;;12.86;57.26;99512.06;2345353;74;51431;-77
2022/12/23 04:40:55;;;;;;;;;;;;;;;12.88;57.23;99517.72;2299667;76;52375;-77
2022/12/23 04:43:57;;;;;;;;;;;;;;;12.88;57.24;99513.73;2325691;76;51494;-76
2022/12/23 04:46:58;;;;;;;;;;;;;;;12.87;57.25;99512.92;2325794;76;50291;-77
2022/12/23 04:50:00;;;;;;;;;;;;;;;12.88;57.20;99513.73;2345654;74;50402;-77
2022/12/23 04:53:02;;;;;;;;;;;;;;;12.89;57.14;99519.36;2326045;76;52588;-77
2022/12/23 04:56:03;;;;;;;;;;;;;;;12.88;57.20;99509.76;2356765;73;50530;-77
2022/12/23 04:59:05;;;;;;;;;;;;;;;12.89;57.22;99508.74;2326233;75;51474;-77
2022/12/23 05:02:07;;;;;;;;;;;;;;;12.86;57.24;99516.05;2346029;76;51443;-77
2022/12/23 05:05:08;;;;;;;;;;;;;;;12.89;57.22;99512.72;2300258;76;51694;-78
2022/12/23 05:08:10;;;;;;;;;;;;;;;12.88;57.24;99509.25;2345246;74;50417;-77
2022/12/23 05:11:11;;;;;;;;;;;;;;;12.88;57.25;99508.43;2325319;76;50091;-77
2022/12/23 05:14:13;;;;;;;;;;;;;;;12.88;57.13;99507.10;2325611;76;50442;-77
2022/12/23 05:17:15;;;;;;;;;;;;;;;12.88;57.21;99516.39;2299964;76;50156;-77
2022/12/23 05:20:16;;;;;;;;;;;;;;;12.88;57.23;99511.08;2345782;74;50805;-77
2022/12/23 05:23:18;;;;;;;;;;;;;;;12.88;57.29;99513.73;2345720;76;50293;-77
2022/12/23 05:26:19;;;;;;;;;;;;;;;12.88;57.30;99515.06;2356398;75;50678;-77
2022/12/23 05:29:21;;;;;;;;;;;;;;;12.88;57.29;99517.72;2325373;75;50931;-77
2022/12/23 05:32:22;;;;;;;;;;;;;;;12.86;57.31;99510.73;2345437;75;50401;-77
2022/12/23 05:35:24;;;;;;;;;;;;;;;12.88;57.31;99512.41;2345244;76;50730;-77
2022/12/23 05:38:26;;;;;;;;;;;;;;;12.86;57.34;99511.25;2345116;74;50337;-77
2022/12/23 05:41:27;;;;;;;;;;;;;;;12.86;57.26;99512.06;2299234;76;49717;-77
2022/12/23 05:44:29;;;;;;;;;;;;;;;12.87;57.25;99520.87;2345368;76;50835;-77
2022/12/23 05:47:31;;;;;;;;;;;;;;;12.89;57.19;99518.86;2325245;74;50652;-77
2022/12/23 05:50:32;;;;;;;;;;;;;;;12.87;57.24;99518.23;2325369;76;53758;-77
2022/12/23 05:53:34;;;;;;;;;;;;;;;12.86;57.29;99518.70;2325371;76;52657;-77
2022/12/23 05:56:35;;;;;;;;;;;;;;;12.86;57.30;99516.05;2356103;75;50728;-77
2022/12/23 05:59:37;;;;;;;;;;;;;;;12.86;57.30;99512.06;2345448;74;51515;-77
2022/12/23 06:02:38;;;;;;;;;;;;;;;12.88;57.35;99513.73;2325461;76;51467;-77
2022/12/23 06:05:42;;;;;;;;;;;;;;;12.87;57.32;99522.21;2325502;76;50071;-77
2022/12/23 06:08:43;;;;;;;;;;;;;;;12.88;57.27;99527.02;2345558;74;24623;-76
2022/12/23 06:11:45;;;;;;;;;;;;;;;12.87;57.29;99522.21;2345575;76;51517;-77
2022/12/23 06:14:46;;;;;;;;;;;;;;;12.88;57.33;99524.36;2345771;76;51492;-77
2022/12/23 06:17:48;;;;;;;;;;;;;;;12.88;57.27;99525.18;2302087;74;52715;-77
2022/12/23 06:20:50;;;;;;;;;;;;;;;12.87;57.34;99523.54;2346155;76;50799;-77
2022/12/23 06:23:51;;;;;;;;;;;;;;;12.87;57.33;99530.17;2325633;76;51476;-77
2022/12/23 06:26:53;;;;;;;;;;;;;;;12.88;57.29;99543.77;2356692;75;50775;-77
2022/12/23 06:29:55;;;;;;;;;;;;;;;12.89;57.35;99547.23;2288071;77;51453;-77
2022/12/23 06:32:56;;;;;;;;;;;;;;;12.89;57.25;99546.73;2310632;76;50742;-77
2022/12/23 06:35:58;;;;;;;;;;;;;;;12.89;57.25;99549.89;2309055;77;49780;-77
2022/12/23 06:38:59;;;;;;;;;;;;;;;12.89;57.26;99553.88;2288847;76;50662;-77
2022/12/23 06:42:01;;;;;;;;;;;;;;;12.88;57.32;99554.89;2265965;77;51788;-77
2022/12/23 06:45:03;;;;;;;;;;;;;;;12.87;57.32;99555.39;2288186;77;51648;-77
2022/12/23 06:48:04;;;;;;;;;;;;;;;12.87;57.30;99566.02;2307363;76;50810;-77
2022/12/23 06:51:06;;;;;;;;;;;;;;;12.88;57.29;99568.16;2307565;76;51547;-77
2022/12/23 06:54:09;;;;;;;;;;;;;;;12.88;57.30;99584.09;2268494;76;49609;-77
2022/12/23 06:57:12;;;;;;;;;;;;;;;12.87;57.35;99579.28;2355727;75;51634;-77
2022/12/23 07:00:14;;;;;;;;;;;;;;;12.86;57.39;99589.05;2325361;75;51471;-77
2022/12/23 07:03:16;;;;;;;;;;;;;;;12.87;57.36;99581.94;2345214;76;50841;-77
2022/12/23 07:06:18;;;;;;;;;;;;;;;12.87;57.31;99585.92;2325182;76;51829;-77
2022/12/23 07:09:20;;;;;;;;;;;;;;;12.88;57.38;99595.53;2345035;74;50436;-77
2022/12/23 07:12:21;;;;;;;;;;;;;;;12.88;57.39;99595.53;2344956;76;51613;-77
2022/12/23 07:15:23;;;;;;;;;;;;;;;12.90;57.35;99608.65;2325183;76;51469;-77
2022/12/23 07:18:25;;;;;;;;;;;;;;;12.88;57.32;99610.13;2324785;74;51186;-77
2022/12/23 07:21:26;;;;;;;;;;;;;;;12.88;57.39;99610.64;2345035;75;51470;-77
2022/12/23 07:24:28;;;;;;;;;;;;;;;12.88;57.41;99609.31;2345015;75;51477;-77
2022/12/23 07:27:29;;;;;;;;;;;;;;;12.88;57.32;99610.64;2336840;74;49996;-77
2022/12/23 07:30:31;;;;;;;;;;;;;;;12.89;57.38;99612.28;2299333;76;50938;-77
2022/12/23 07:33:33;;;;;;;;;;;;;;;12.86;57.44;99612.95;2345012;75;50415;-77
2022/12/23 07:36:34;;;;;;;;;;;;;;;12.88;57.42;99614.63;2324798;76;50128;-77
2022/12/23 07:39:36;;;;;;;;;;;;;;;12.89;57.39;99617.59;2344972;74;50368;-77
2022/12/23 07:42:37;;;;;;;;;;;;;;;12.88;57.42;99614.63;2325226;76;49511;-77
2022/12/23 07:45:39;;;;;;;;;;;;;;;12.89;57.41;99624.23;2344971;76;50299;-77
2022/12/23 07:48:41;;;;;;;;;;;;;;;12.89;57.34;99625.55;2344755;74;50784;-77
2022/12/23 07:51:42;;;;;;;;;;;;;;;12.89;57.33;99627.70;2325190;76;50441;-77
2022/12/23 07:54:44;;;;;;;;;;;;;;;12.89;57.42;99632.19;2344959;76;50299;-77
2022/12/23 07:57:49;;;;;;;;;;;;;;;12.89;57.38;99636.17;2330319;74;50706;-77
2022/12/23 08:00:50;;;;;;;;;;;;;;;12.88;57.39;99635.35;2344958;75;51618;-77
2022/12/23 08:03:52;;;;;;;;;;;;;;;12.89;57.42;99634.84;2325185;76;50052;-77
2022/12/23 08:06:53;;;;;;;;;;;;;;;12.88;57.47;99647.80;2324929;76;51518;-77
2022/12/23 08:09:55;;;;;;;;;;;;;;;12.88;57.38;99649.13;2345082;74;51588;-77
2022/12/23 08:12:58;;;;;;;;;;;;;;;12.88;57.44;99644.64;2345063;76;51287;-77
2022/12/23 08:16:00;;;;;;;;;;;;;;;12.88;57.43;99641.17;2345068;75;51452;-78
2022/12/23 08:19:01;;;;;;;;;;;;;;;12.89;57.41;99650.78;2324944;75;50816;-77
2022/12/23 08:22:03;;;;;;;;;;;;;;;12.88;57.47;99653.94;2325109;76;50909;-77
2022/12/23 08:25:05;;;;;;;;;;;;;;;12.89;57.43;99660.07;2348757;75;51343;-77
2022/12/23 08:28:07;;;;;;;;;;;;;;;12.90;57.43;99667.88;2328467;74;51571;-77
2022/12/23 08:31:10;;;;;;;;;;;;;;;12.90;57.33;99662.56;2325024;76;49619;-77
2022/12/23 08:34:13;;;;;;;;;;;;;;;12.90;57.46;99667.06;2345160;74;50480;-77
2022/12/23 08:37:15;;;;;;;;;;;;;;;12.89;57.48;99674.67;2345057;76;51560;-77
2022/12/23 08:40:17;;;;;;;;;;;;;;;12.89;57.47;99667.53;2325279;75;50445;-78
2022/12/23 08:43:18;;;;;;;;;;;;;;;12.90;57.47;99665.73;2345063;76;51599;-77
2022/12/23 08:46:20;;;;;;;;;;;;;;;12.90;57.48;99676.34;2325228;76;51610;-77
2022/12/23 08:49:21;;;;;;;;;;;;;;;12.90;57.44;99668.38;2325102;75;51586;-78
2022/12/23 08:52:23;;;;;;;;;;;;;;;12.90;57.46;99668.38;2345294;76;51555;-78
2022/12/23 08:55:25;;;;;;;;;;;;;;;12.90;57.40;99673.69;2306711;75;51228;-77
2022/12/23 08:58:26;;;;;;;;;;;;;;;12.91;57.36;99681.97;2374112;73;50017;-77
2022/12/23 09:01:29;;;;;;;;;;;;;;;12.90;57.33;99685.13;2377758;75;50285;-78
2022/12/23 09:04:30;;;;;;;;;;;;;;;12.91;57.41;99687.28;2377948;74;50736;-78
2022/12/23 09:07:32;;;;;;;;;;;;;;;12.91;57.42;99677.99;2347333;73;51574;-77
2022/12/23 09:10:34;;;;;;;;;;;;;;;12.91;57.42;99696.58;2378026;75;50766;-77
2022/12/23 09:13:35;;;;;;;;;;;;;;;12.90;57.46;99706.88;2377985;74;50393;-77
2022/12/23 09:16:37;;;;;;;;;;;;;;;12.91;57.43;99695.25;2377906;75;49979;-78
2022/12/23 09:19:39;;;;;;;;;;;;;;;12.92;57.40;99702.20;2347677;75;52642;-77
2022/12/23 09:22:40;;;;;;;;;;;;;;;12.93;57.35;99706.53;2347887;75;50255;-78
2022/12/23 09:25:42;;;;;;;;;;;;;;;12.94;57.31;99709.51;2366699;75;50400;-78
2022/12/23 09:28:43;;;;;;;;;;;;;;;12.93;57.32;99713.17;2345021;74;50344;-77
2022/12/23 09:31:45;;;;;;;;;;;;;;;12.92;57.43;99723.45;2325091;76;51010;-78
2022/12/23 09:34:46;;;;;;;;;;;;;;;12.92;57.42;99738.05;2345152;75;50683;-77
2022/12/23 09:37:48;;;;;;;;;;;;;;;12.91;57.46;99733.24;2324966;74;51644;-78
2022/12/23 09:40:50;;;;;;;;;;;;;;;12.93;57.35;99739.73;2345052;75;51589;-78
2022/12/23 09:44:02;;;;;;;;;;;;;;;12.94;57.42;99741.37;2324944;76;52531;-77
2022/12/23 09:47:08;;;;;;;;;;;;;;;12.92;57.41;99754.83;2343790;75;50363;-77
2022/12/23 09:50:11;;;;;;;;;;;;;;;12.92;57.47;99764.59;2345147;74;51546;-77
2022/12/23 09:53:21;;;;;;;;;;;;;;;12.94;57.36;99765.27;2344405;75;51615;-77
2022/12/23 09:56:24;;;;;;;;;;;;;;;12.94;57.39;99759.95;2331804;75;52425;-77
2022/12/23 09:59:44;;;;;;;;;;;;;;;12.93;57.43;99768.93;2343594;74;50312;-77
2022/12/23 10:03:00;;;;;;;;;;;;;;;12.93;57.37;99776.90;2345062;75;51654;-77
2022/12/23 10:06:03;;;;;;;;;;;;;;;12.92;57.42;99780.06;2344890;75;50774;-78
2022/12/23 10:09:04;;;;;;;;;;;;;;;12.93;57.38;99788.34;2325007;75;52362;-78
2022/12/23 10:12:11;;;;;;;;;;;;;;;12.92;57.53;99791.15;2344975;76;51400;-77
2022/12/23 10:15:32;;;;;;;;;;;;;;;12.94;57.42;99790.49;2327283;75;51442;-77
2022/12/23 10:18:35;;;;;;;;;;;;;;;12.93;57.53;99784.86;2258427;77;50354;-77
2022/12/23 10:21:41;;;;;;;;;;;;;;;12.92;57.51;99785.37;2233626;78;51375;-77
2022/12/23 10:24:43;;;;;;;;;;;;;;;12.92;57.55;99782.71;2258341;78;51691;-77
2022/12/23 10:27:44;;;;;;;;;;;;;;;12.91;57.56;99784.20;2269533;77;50785;-77
2022/12/23 10:30:48;;;;;;;;;;;;;;;12.91;57.55;99781.54;2258308;78;50550;-77
2022/12/23 10:33:54;;;;;;;;;;;;;;;12.92;57.48;99776.08;2233548;78;51315;-77
2022/12/23 10:36:58;;;;;;;;;;;;;;;12.92;57.49;99770.77;2257850;78;51614;-77
2022/12/23 10:40:01;;;;;;;;;;;;;;;12.92;57.62;99772.56;2258278;78;51558;-77
2022/12/23 10:43:22;;;;;;;;;;;;;;;12.91;57.56;99774.40;2258296;77;51797;-77
2022/12/23 10:46:28;;;;;;;;;;;;;;;12.93;57.44;99777.72;2233614;78;51293;-77
2022/12/23 10:49:31;;;;;;;;;;;;;;;12.93;57.50;99755.66;2300829;76;50917;-77
2022/12/23 10:52:34;;;;;;;;;;;;;;;12.93;57.53;99763.12;2344932;76;50326;-77
2022/12/23 10:55:37;;;;;;;;;;;;;;;12.95;57.49;99762.96;2354152;74;51692;-77
2022/12/23 10:58:40;;;;;;;;;;;;;;;12.94;57.49;99774.05;2325354;75;52460;-77
2022/12/23 11:01:43;;;;;;;;;;;;;;;12.96;57.48;99780.54;2344846;76;50901;-77
2022/12/23 11:04:45;;;;;;;;;;;;;;;12.97;57.42;99784.37;2344844;76;50106;-77
2022/12/23 11:07:46;;;;;;;;;;;;;;;12.97;57.40;99777.73;2344556;74;51678;-77
2022/12/23 11:10:48;;;;;;;;;;;;;;;12.97;57.38;99779.06;2299124;76;50146;-77
2022/12/23 11:13:50;;;;;;;;;;;;;;;12.95;57.49;99778.89;2344895;76;50769;-77
2022/12/23 11:16:51;;;;;;;;;;;;;;;12.95;57.51;99780.22;2344792;76;50678;-77
2022/12/23 11:20:06;;;;;;;;;;;;;;;12.94;57.49;99782.02;2344856;74;51437;-77
2022/12/23 11:23:27;;;;;;;;;;;;;;;12.96;57.49;99784.02;2299046;76;50201;-77
2022/12/23 11:26:29;;;;;;;;;;;;;;;12.96;57.48;99783.20;2355618;75;51496;-77
2022/12/23 11:29:37;;;;;;;;;;;;;;;12.96;57.52;99783.20;2344824;74;51493;-77
2022/12/23 11:32:39;;;;;;;;;;;;;;;12.94;57.54;99784.67;2345058;76;50719;-77
2022/12/23 11:35:40;;;;;;;;;;;;;;;12.95;57.55;99781.55;2299291;76;52403;-77
2022/12/23 11:38:50;;;;;;;;;;;;;;;12.95;57.48;99786.36;2324886;75;52417;-77
2022/12/23 11:41:52;;;;;;;;;;;;;;;12.98;57.42;99789.17;2345160;75;50305;-77
2022/12/23 11:44:55;;;;;;;;;;;;;;;12.96;57.49;99793.31;2345041;75;51507;-77
2022/12/23 11:47:57;;;;;;;;;;;;;;;12.97;57.47;99794.99;2345056;74;50535;-77
2022/12/23 11:50:59;;;;;;;;;;;;;;;12.96;57.53;99795.97;2299663;76;51213;-78
2022/12/23 11:54:01;;;;;;;;;;;;;;;12.96;57.47;99809.75;2345668;76;51431;-77
2022/12/23 11:57:03;;;;;;;;;;;;;;;12.95;57.53;99812.09;2359730;75;50484;-77
2022/12/23 12:00:07;;;;;;;;;;;;;;;12.97;57.45;99820.22;2377644;73;51569;-78
2022/12/23 12:03:10;;;;;;;;;;;;;;;12.97;57.50;99817.56;2347191;75;51318;-78
2022/12/23 12:06:13;;;;;;;;;;;;;;;12.97;57.53;99820.69;2376861;75;50703;-77
2022/12/23 12:09:14;;;;;;;;;;;;;;;;;;2377848;73;51567;-77
2022/12/23 12:12:18;;;;;;;;;;;;;;;12.94;57.56;99831.64;2377987;75;50459;-77
2022/12/23 12:15:21;;;;;;;;;;;;;;;12.94;57.65;99834.30;2347613;75;50795;-77
2022/12/23 12:18:22;;;;;;;;;;;;;;;12.95;57.59;99834.66;2356788;73;50325;-77
2022/12/23 12:21:24;;;;;;;;;;;;;;;12.95;57.58;99842.63;2347414;75;51225;-77
2022/12/23 12:24:30;;;;;;;;;;;;;;;12.97;57.48;99833.97;2370210;75;50387;-77
2022/12/23 12:27:34;;;;;;;;;;;;;;;12.96;57.52;99840.28;2355792;74;50725;-77
2022/12/23 12:30:40;;;;;;;;;;;;;;;12.98;57.49;99839.13;2348493;75;50825;-77
2022/12/23 12:33:47;;;;;;;;;;;;;;;12.97;57.53;99836.15;2327417;74;50417;-77
2022/12/23 12:37:02;;;;;;;;;;;;;;;12.96;57.61;99824.35;2345038;75;50451;-77
2022/12/23 12:40:08;;;;;;;;;;;;;;;12.97;57.53;99828.66;2327802;75;52627;-77
2022/12/23 12:43:18;;;;;;;;;;;;;;;12.97;57.58;99832.16;2346462;76;50777;-77
2022/12/23 12:46:21;;;;;;;;;;;;;;;12.97;57.53;99822.02;2345384;76;51540;-77
2022/12/23 12:49:31;;;;;;;;;;;;;;;12.95;57.60;99826.69;2345400;74;51585;-77
2022/12/23 12:52:34;;;;;;;;;;;;;;;12.97;57.55;99823.34;2328545;76;51571;-77
2022/12/23 12:55:36;;;;;;;;;;;;;;;12.96;57.58;99820.37;2345305;75;51666;-77
2022/12/23 12:58:38;;;;;;;;;;;;;;;12.97;57.61;99814.05;2344936;74;50401;-77
2022/12/23 13:01:57;;;;;;;;;;;;;;;12.97;57.54;99814.05;2325064;76;51145;-77
2022/12/23 13:05:00;;;;;;;;;;;;;;;12.97;57.55;99806.08;2324681;76;51086;-77
2022/12/23 13:08:12;;;;;;;;;;;;;;;12.97;57.61;99806.08;2344582;74;50285;-77
2022/12/23 13:11:16;;;;;;;;;;;;;;;12.97;57.60;99826.00;2345154;76;50759;-77
2022/12/23 13:14:22;;;;;;;;;;;;;;;12.97;57.58;99818.89;2344993;76;50819;-77
2022/12/23 13:17:28;;;;;;;;;;;;;;;12.99;57.54;99820.03;2324857;76;51233;-77
2022/12/23 13:20:31;;;;;;;;;;;;;;;12.99;57.55;99808.08;2345136;76;52535;-77
2022/12/23 13:23:40;;;;;;;;;;;;;;;12.97;57.61;99820.22;2345268;76;50682;-77
2022/12/23 13:26:46;;;;;;;;;;;;;;;12.97;57.64;99815.38;2355909;75;50343;-77
2022/12/23 13:29:52;;;;;;;;;;;;;;;12.97;57.62;99806.08;2324972;75;52409;-77
2022/12/23 13:33:00;;;;;;;;;;;;;;;12.97;57.61;99804.75;2344991;76;51527;-76
2022/12/23 13:36:03;;;;;;;;;;;;;;;12.96;57.68;99801.28;2344856;75;50396;-77
2022/12/23 13:39:07;;;;;;;;;;;;;;;13.00;57.60;99792.50;2344166;74;50255;-77
2022/12/23 13:42:09;;;;;;;;;;;;;;;12.99;57.67;99784.19;2324774;76;51246;-77
2022/12/23 13:45:12;;;;;;;;;;;;;;;12.97;57.59;99781.71;2345205;76;51777;-76
2022/12/23 13:48:19;;;;;;;;;;;;;;;12.99;57.59;99786.84;2345258;74;50068;-77
2022/12/23 13:51:31;;;;;;;;;;;;;;;12.99;57.65;99801.44;2345345;76;50768;-77
2022/12/23 13:54:40;;;;;;;;;;;;;;;12.97;57.63;99792.80;2250159;75;52576;-78
2022/12/23 13:57:46;;;;;;;;;;;;;;;12.97;57.63;99788.82;2355647;74;51597;-77
2022/12/23 14:01:06;;;;;;;;;;;;;;;12.97;57.64;99783.52;2345118;76;51611;-77
2022/12/23 14:04:16;;;;;;;;;;;;;;;12.96;57.67;99784.52;2345111;75;51510;-78
2022/12/23 14:07:18;;;;;;;;;;;;;;;12.97;57.67;99791.48;2286646;76;52056;-77
2022/12/23 14:10:21;;;;;;;;;;;;;;;12.97;57.61;99783.04;2344955;74;50770;-77
2022/12/23 14:13:23;;;;;;;;;;;;;;;12.94;57.81;99789.16;2345435;76;50333;-77
2022/12/23 14:16:32;;;;;;;;;;;;;;;12.95;57.70;99789.52;2344865;75;50731;-78
2022/12/23 14:19:45;;;;;;;;;;;;;;;12.94;57.77;99786.00;2286965;76;51164;-78
2022/12/23 14:22:48;;;;;;;;;;;;;;;12.95;57.71;99797.48;2321557;75;51512;-78
2022/12/23 14:25:54;;;;;;;;;;;;;;;12.95;57.68;99795.65;2354576;75;51536;-78
2022/12/23 14:28:57;;;;;;;;;;;;;;;12.97;57.67;99795.46;2324654;75;51824;-76
2022/12/23 14:31:59;;;;;;;;;;;;;;;12.95;57.73;99800.13;2324949;76;54118;-76
2022/12/23 14:35:05;;;;;;;;;;;;;;;12.94;57.70;99792.64;2344881;75;50818;-77
2022/12/23 14:38:11;;;;;;;;;;;;;;;12.98;57.70;99801.13;2344869;74;51621;-76
2022/12/23 14:41:23;;;;;;;;;;;;;;;12.96;57.73;99799.12;2343670;75;50522;-77
2022/12/23 14:44:38;;;;;;;;;;;;;;;12.95;57.74;99798.81;2324883;76;51303;-77
2022/12/23 14:47:40;;;;;;;;;;;;;;;12.93;57.74;99805.59;2344752;74;50294;-77
2022/12/23 14:50:42;;;;;;;;;;;;;;;12.95;57.70;99795.65;2345117;76;50792;-78
2022/12/23 14:53:58;;;;;;;;;;;;;;;12.98;57.69;99807.77;2345137;76;50748;-77
2022/12/23 14:56:59;;;;;;;;;;;;;;;12.97;57.67;99807.41;2348052;75;22333;-77
2022/12/23 15:00:01;;;;;;;;;;;;;;;12.95;57.68;99808.10;2377848;73;51631;-77
2022/12/23 15:03:02;;;;;;;;;;;;;;;12.94;57.80;99805.09;2377833;75;51498;-78
2022/12/23 15:06:06;;;;;;;;;;;;;;;12.94;57.70;99811.73;2377658;75;51447;-78
2022/12/23 15:09:07;;;;;;;;;;;;;;;12.95;57.72;99820.05;2347280;75;52587;-77
2022/12/23 15:12:13;;;;;;;;;;;;;;;12.95;57.75;99814.73;2377826;75;51541;-78
2022/12/23 15:15:16;;;;;;;;;;;;;;;12.94;57.73;99811.23;2377840;75;50442;-78
2022/12/23 15:18:17;;;;;;;;;;;;;;;12.96;57.66;99818.53;2377575;73;51521;-78
2022/12/23 15:21:19;;;;;;;;;;;;;;;12.95;57.70;99816.06;2347474;75;52338;-78
2022/12/23 15:24:21;;;;;;;;;;;;;;;12.94;57.76;99807.25;2340617;75;51453;-78
2022/12/23 15:27:22;;;;;;;;;;;;;;;12.94;57.83;99805.92;2355734;75;52497;-78
2022/12/23 15:30:24;;;;;;;;;;;;;;;12.94;57.80;99801.11;2344945;74;51634;-78
2022/12/23 15:33:28;;;;;;;;;;;;;;;12.94;57.75;99807.75;2325001;76;51254;-78
2022/12/23 15:36:30;;;;;;;;;;;;;;;12.95;57.74;99808.10;2344937;76;50513;-78
2022/12/23 15:39:35;;;;;;;;;;;;;;;12.93;57.79;99804.27;2345154;74;50353;-78
2022/12/23 15:42:37;;;;;;;;;;;;;;;12.92;57.80;99794.66;2345382;76;50286;-76
2022/12/23 15:45:39;;;;;;;;;;;;;;;12.93;57.84;99804.27;2299212;76;51229;-77
2022/12/23 15:48:40;;;;;;;;;;;;;;;12.94;57.79;99797.13;2324995;75;51521;-77
2022/12/23 15:51:43;;;;;;;;;;;;;;;12.94;57.79;99793.15;2345110;76;50517;-77
2022/12/23 15:54:47;;;;;;;;;;;;;;;12.93;57.82;99781.70;2345185;75;51596;-78
2022/12/23 15:57:48;;;;;;;;;;;;;;;12.93;57.83;99784.86;2329065;74;52431;-77
2022/12/23 16:00:51;;;;;;;;;;;;;;;12.92;57.87;99792.48;2345010;76;50695;-77
2022/12/23 16:03:56;;;;;;;;;;;;;;;12.92;57.93;99798.64;2345054;76;51628;-77
2022/12/23 16:06:58;;;;;;;;;;;;;;;12.91;57.92;99794.31;2344964;76;51623;-77
2022/12/23 16:10:04;;;;;;;;;;;;;;;12.95;57.78;99805.45;2325056;75;52353;-78
2022/12/23 16:13:07;;;;;;;;;;;;;;;12.93;57.81;99817.55;2325224;76;51252;-78
2022/12/23 16:16:27;;;;;;;;;;;;;;;12.94;57.76;99806.42;2344253;75;51534;-77
2022/12/23 16:19:48;;;;;;;;;;;;;;;12.94;57.80;99811.73;2345047;74;50737;-77
2022/12/23 16:22:53;;;;;;;;;;;;;;;12.95;57.77;99821.38;2325038;76;52451;-77
2022/12/23 16:25:54;;;;;;;;;;;;;;;12.95;57.78;99816.89;2355933;75;50442;-77